createdAt,value
2023-05-05T00:00:47.204Z,15.34
2023-05-05T00:03:36.989Z,15.76
2023-05-05T00:06:28.453Z,15.80
2023-05-05T00:09:22.572Z,15.71
2023-05-05T00:12:10.234Z,15.70
2023-05-05T00:15:00.067Z,15.73
2023-05-05T00:17:47.479Z,15.80
2023-05-05T00:20:37.128Z,16.03
2023-05-05T00:23:24.678Z,16.11
2023-05-05T00:26:13.261Z,16.11
2023-05-05T00:29:06.494Z,16.13
2023-05-05T00:31:54.112Z,16.25
2023-05-05T00:34:41.924Z,16.29
2023-05-05T00:37:31.410Z,16.29
2023-05-05T00:40:19.229Z,16.24
2023-05-05T00:43:08.302Z,16.15
2023-05-05T00:46:03.074Z,16.05
2023-05-05T00:48:54.056Z,16.03
2023-05-05T00:51:43.773Z,15.96
2023-05-05T00:54:33.343Z,15.90
2023-05-05T00:57:20.792Z,15.83
2023-05-05T01:00:12.238Z,15.80
2023-05-05T01:03:00.065Z,15.76
2023-05-05T01:05:56.909Z,15.75
2023-05-05T01:09:01.933Z,15.74
2023-05-05T01:11:59.897Z,15.77
2023-05-05T01:15:06.781Z,15.78
2023-05-05T01:17:59.747Z,15.77
2023-05-05T01:20:58.991Z,15.79
2023-05-05T01:24:08.092Z,15.87
2023-05-05T01:27:18.125Z,15.88
2023-05-05T01:30:28.690Z,15.84
2023-05-05T01:33:20.289Z,15.83
2023-05-05T01:36:13.654Z,15.80
2023-05-05T01:39:03.101Z,15.79
2023-05-05T01:41:54.364Z,15.79
2023-05-05T01:44:44.200Z,15.81
2023-05-05T01:47:32.305Z,15.74
2023-05-05T01:50:23.308Z,15.76
2023-05-05T01:53:11.710Z,15.70
2023-05-05T01:56:00.153Z,15.61
2023-05-05T01:58:49.218Z,15.55
2023-05-05T02:01:41.800Z,15.44
2023-05-05T02:04:31.863Z,15.35
2023-05-05T02:07:23.460Z,15.30
2023-05-05T02:10:13.739Z,15.11
2023-05-05T02:13:05.398Z,15.01
2023-05-05T02:15:55.538Z,15.02
2023-05-05T02:18:48.457Z,15.07
2023-05-05T02:21:36.566Z,15.02
2023-05-05T02:24:28.489Z,15.05
2023-05-05T02:27:21.706Z,14.97
2023-05-05T02:30:15.257Z,14.96
2023-05-05T02:33:09.263Z,14.90
2023-05-05T02:35:57.590Z,14.88
2023-05-05T02:38:48.643Z,14.84
2023-05-05T02:41:39.537Z,14.76
2023-05-05T02:44:32.453Z,14.77
2023-05-05T02:47:23.162Z,14.61
2023-05-05T02:50:13.389Z,14.66
2023-05-05T02:53:01.215Z,14.55
2023-05-05T02:55:53.758Z,14.51
2023-05-05T02:58:51.233Z,14.53
2023-05-05T03:02:00.309Z,14.45
2023-05-05T03:04:52.265Z,14.50
2023-05-05T03:07:52.298Z,14.45
2023-05-05T03:10:49.222Z,14.46
2023-05-05T03:13:40.985Z,14.38
2023-05-05T03:16:35.161Z,14.36
2023-05-05T03:19:24.732Z,14.40
2023-05-05T03:22:16.538Z,14.29
2023-05-05T03:25:04.745Z,14.19
2023-05-05T03:27:55.122Z,14.24
2023-05-05T03:30:43.231Z,14.22
2023-05-05T03:33:32.632Z,14.19
2023-05-05T03:36:20.119Z,14.16
2023-05-05T03:39:11.151Z,14.14
2023-05-05T03:41:59.112Z,14.06
2023-05-05T03:44:47.467Z,14.00
2023-05-05T03:47:59.196Z,14.01
2023-05-05T03:50:48.977Z,13.97
2023-05-05T03:53:36.879Z,13.92
2023-05-05T03:56:27.125Z,13.87
2023-05-05T03:59:17.357Z,13.88
2023-05-05T04:02:23.369Z,13.86
2023-05-05T04:09:09.703Z,13.83
2023-05-05T04:12:11.031Z,13.80
2023-05-05T04:15:08.928Z,13.80
2023-05-05T04:17:56.238Z,13.78
2023-05-05T04:20:43.673Z,13.77
2023-05-05T04:23:32.599Z,13.69
2023-05-05T04:26:19.921Z,13.73
2023-05-05T04:29:09.917Z,13.73
2023-05-05T04:31:58.343Z,13.73
2023-05-05T04:34:45.624Z,13.65
2023-05-05T04:37:33.051Z,13.69
2023-05-05T04:40:20.490Z,13.66
2023-05-05T04:43:07.950Z,13.59
2023-05-05T04:45:56.673Z,13.57
2023-05-05T04:48:44.300Z,13.59
2023-05-05T04:51:32.246Z,13.58
2023-05-05T04:54:22.096Z,13.67
2023-05-05T04:57:09.883Z,13.65
2023-05-05T04:59:57.404Z,13.73
2023-05-05T05:02:46.382Z,13.83
2023-05-05T05:05:36.686Z,13.94
2023-05-05T05:08:24.243Z,13.96
2023-05-05T05:11:12.181Z,14.26
2023-05-05T05:13:59.765Z,14.17
2023-05-05T05:16:56.705Z,14.31
2023-05-05T05:19:45.300Z,14.42
2023-05-05T05:22:33.021Z,14.49
2023-05-05T05:25:20.399Z,14.36
2023-05-05T05:28:10.064Z,14.39
2023-05-05T05:30:58.566Z,14.45
2023-05-05T05:33:46.405Z,14.52
2023-05-05T05:36:35.363Z,14.46
2023-05-05T05:39:27.300Z,14.43
2023-05-05T05:42:14.628Z,14.46
2023-05-05T05:45:02.336Z,14.39
2023-05-05T05:47:55.375Z,14.28
2023-05-05T05:50:45.832Z,14.20
2023-05-05T05:53:37.934Z,14.10
2023-05-05T05:56:25.563Z,14.32
2023-05-05T05:59:12.770Z,14.30
2023-05-05T06:02:00.365Z,14.39
2023-05-05T06:04:48.144Z,14.55
2023-05-05T06:07:38.161Z,14.50
2023-05-05T06:10:28.458Z,14.62
2023-05-05T06:13:16.255Z,14.69
2023-05-05T06:16:03.725Z,14.86
2023-05-05T06:18:51.399Z,15.01
2023-05-05T06:21:38.725Z,15.13
2023-05-05T06:24:29.374Z,15.20
2023-05-05T06:27:20.808Z,15.37
2023-05-05T06:30:14.888Z,15.41
2023-05-05T06:33:02.383Z,15.40
2023-05-05T06:35:51.934Z,15.70
2023-05-05T06:38:39.253Z,15.72
2023-05-05T06:41:26.620Z,15.62
2023-05-05T06:44:15.320Z,15.50
2023-05-05T06:47:08.119Z,15.61
2023-05-05T06:49:55.573Z,15.63
2023-05-05T06:52:49.322Z,15.86
2023-05-05T06:55:37.031Z,15.92
2023-05-05T06:58:24.539Z,16.16
2023-05-05T07:01:13.991Z,16.10
2023-05-05T07:04:04.718Z,16.27
2023-05-05T07:06:52.340Z,16.22
2023-05-05T07:09:50.856Z,16.19
2023-05-05T07:12:38.620Z,16.32
2023-05-05T07:15:29.270Z,16.20
2023-05-05T07:18:20.933Z,16.36
2023-05-05T07:21:08.515Z,16.24
2023-05-05T07:24:41.212Z,16.20
2023-05-05T07:27:43.286Z,16.43
2023-05-05T07:30:33.577Z,16.47
2023-05-05T07:33:22.546Z,16.54
2023-05-05T07:36:12.842Z,16.63
2023-05-05T07:39:03.635Z,16.60
2023-05-05T07:41:52.865Z,16.57
2023-05-05T07:44:43.369Z,16.91
2023-05-05T07:47:31.305Z,17.19
2023-05-05T07:50:20.763Z,17.20
2023-05-05T07:53:14.559Z,17.19
2023-05-05T07:56:06.391Z,17.07
2023-05-05T07:58:53.883Z,16.98
2023-05-05T08:01:41.801Z,17.03
2023-05-05T08:04:29.796Z,17.26
2023-05-05T08:07:18.699Z,16.93
2023-05-05T08:10:09.010Z,17.26
2023-05-05T08:12:56.855Z,17.25
2023-05-05T08:15:45.247Z,17.52
2023-05-05T08:18:34.537Z,17.75
2023-05-05T08:21:22.496Z,18.06
2023-05-05T08:24:11.783Z,18.34
2023-05-05T08:27:01.709Z,18.56
2023-05-05T08:29:49.256Z,18.68
2023-05-05T08:32:36.895Z,18.85
2023-05-05T08:35:26.472Z,18.58
2023-05-05T08:38:14.249Z,18.43
2023-05-05T08:41:04.129Z,18.15
2023-05-05T08:43:51.642Z,18.44
2023-05-05T08:46:40.268Z,18.50
2023-05-05T08:49:32.053Z,18.51
2023-05-05T08:52:26.841Z,18.22
2023-05-05T08:55:21.352Z,18.47
2023-05-05T08:58:14.644Z,18.40
2023-05-05T09:01:02.586Z,18.52
2023-05-05T09:03:52.555Z,18.56
2023-05-05T09:06:40.902Z,18.80
2023-05-05T09:09:29.490Z,18.56
2023-05-05T09:12:21.787Z,18.45
2023-05-05T09:15:12.972Z,18.41
2023-05-05T09:18:05.274Z,18.44
2023-05-05T09:20:56.052Z,18.47
2023-05-05T09:24:08.120Z,18.75
2023-05-05T09:27:02.763Z,18.81
2023-05-05T09:29:51.339Z,18.61
2023-05-05T09:32:49.312Z,18.27
2023-05-05T09:35:53.676Z,18.23
2023-05-05T09:38:41.380Z,18.28
2023-05-05T09:41:39.708Z,18.34
2023-05-05T09:44:40.320Z,18.13
2023-05-05T09:47:39.811Z,17.74
2023-05-05T09:50:43.498Z,17.69
2023-05-05T09:53:39.810Z,17.84
2023-05-05T09:56:38.554Z,18.09
2023-05-05T09:59:26.365Z,17.66
2023-05-05T10:02:14.178Z,17.67
2023-05-05T10:05:10.042Z,17.80
2023-05-05T10:08:14.666Z,17.39
2023-05-05T10:11:07.451Z,17.30
2023-05-05T10:14:00.232Z,17.43
2023-05-05T10:16:52.189Z,17.58
2023-05-05T10:19:40.491Z,17.26
2023-05-05T10:22:30.812Z,17.83
2023-05-05T10:25:28.362Z,17.56
2023-05-05T10:28:22.233Z,17.41
2023-05-05T10:31:25.200Z,17.24
2023-05-05T10:34:24.344Z,17.20
2023-05-05T10:37:36.708Z,16.90
2023-05-05T10:40:26.113Z,16.57
2023-05-05T10:43:16.793Z,16.48
2023-05-05T10:46:05.076Z,16.84
2023-05-05T10:49:11.766Z,16.92
2023-05-05T10:52:14.208Z,16.95
2023-05-05T10:55:13.798Z,16.98
2023-05-05T10:58:02.619Z,16.90
2023-05-05T11:00:51.249Z,16.95
2023-05-05T11:03:56.198Z,16.89
2023-05-05T11:07:53.776Z,17.06
2023-05-05T11:10:44.868Z,16.85
2023-05-05T11:13:38.714Z,16.89
2023-05-05T11:16:48.012Z,16.81
2023-05-05T11:19:49.415Z,16.97
2023-05-05T11:23:11.115Z,17.28
2023-05-05T11:26:04.645Z,17.10
2023-05-05T11:28:59.903Z,16.93
2023-05-05T11:32:13.695Z,17.35
2023-05-05T11:35:06.380Z,16.93
2023-05-05T11:38:10.352Z,16.84
2023-05-05T11:41:04.344Z,16.73
2023-05-05T11:44:24.959Z,16.65
2023-05-05T11:47:28.230Z,16.68
2023-05-05T11:50:21.483Z,16.63
2023-05-05T11:53:09.513Z,16.62
2023-05-05T11:56:13.855Z,16.71
2023-05-05T11:59:09.820Z,16.82
2023-05-05T12:02:04.444Z,16.69
2023-05-05T12:04:58.957Z,16.84
2023-05-05T12:07:58.976Z,16.58
2023-05-05T12:10:47.321Z,16.31
2023-05-05T12:13:36.143Z,16.49
2023-05-05T12:16:23.754Z,15.78
2023-05-05T12:19:14.600Z,15.77
2023-05-05T12:22:05.596Z,15.69
2023-05-05T12:24:57.904Z,15.34
2023-05-05T12:27:51.748Z,15.28
2023-05-05T12:30:39.816Z,15.25
2023-05-05T12:33:27.449Z,14.97
2023-05-05T12:36:16.784Z,15.02
2023-05-05T12:39:09.696Z,15.02
2023-05-05T12:42:03.389Z,15.03
2023-05-05T12:44:51.613Z,15.06
2023-05-05T12:47:44.350Z,15.08
2023-05-05T12:50:35.688Z,15.04
2023-05-05T12:53:25.834Z,14.88
2023-05-05T12:56:36.497Z,14.88
2023-05-05T12:59:30.738Z,14.86
2023-05-05T13:02:18.923Z,14.74
2023-05-05T13:05:08.763Z,14.37
2023-05-05T13:07:56.468Z,13.93
2023-05-05T13:11:20.232Z,-143.34
2023-05-05T13:14:07.886Z,13.92
2023-05-05T13:17:04.502Z,14.06
2023-05-05T13:19:53.082Z,14.04
2023-05-05T13:22:40.550Z,14.01
2023-05-05T13:25:43.205Z,14.05
2023-05-05T13:28:34.341Z,14.00
2023-05-05T13:31:23.032Z,-143.34
2023-05-05T13:34:11.129Z,-143.34
2023-05-05T13:37:05.170Z,-143.34
2023-05-05T13:39:52.816Z,-143.34
2023-05-05T13:42:40.554Z,-143.34
2023-05-05T13:45:33.723Z,-143.34
2023-05-05T13:48:21.419Z,-143.34
2023-05-05T13:51:09.568Z,-143.34
2023-05-05T13:53:59.773Z,-143.34
2023-05-05T13:56:47.023Z,-143.34
2023-05-05T13:59:39.919Z,-143.34
2023-05-05T14:02:38.561Z,-143.34
2023-05-05T14:05:38.373Z,-143.34
2023-05-05T14:08:40.101Z,-143.34
2023-05-05T14:11:27.584Z,-143.34
2023-05-05T14:14:15.222Z,-143.34
2023-05-05T14:17:02.875Z,-143.34
2023-05-05T14:19:52.243Z,-143.34
2023-05-05T14:22:42.960Z,-143.34
2023-05-05T14:25:30.878Z,-143.34
2023-05-05T14:28:18.237Z,-143.34
2023-05-05T14:31:06.557Z,-143.34
2023-05-05T14:33:56.689Z,-143.34
2023-05-05T14:36:45.925Z,-143.34
2023-05-05T14:39:33.242Z,-143.34
2023-05-05T14:42:20.863Z,-143.34
2023-05-05T14:45:16.872Z,-143.34
2023-05-05T14:48:22.945Z,-143.34
2023-05-05T14:51:10.873Z,-143.34
2023-05-05T14:54:00.006Z,-143.34
2023-05-05T14:56:47.388Z,-143.34
2023-05-05T15:00:04.289Z,-143.34
2023-05-05T15:02:51.918Z,-143.34
2023-05-05T15:05:51.667Z,-143.34
2023-05-05T15:08:41.943Z,-143.34
2023-05-05T15:11:30.820Z,-143.34
2023-05-05T15:14:19.632Z,-143.34
2023-05-05T15:17:30.405Z,-143.34
2023-05-05T15:20:22.562Z,-143.34
2023-05-05T15:23:10.341Z,-143.34
2023-05-05T15:26:03.653Z,-143.34
2023-05-05T15:28:55.297Z,-143.34
2023-05-05T15:31:43.186Z,-143.34
2023-05-05T15:34:31.369Z,-143.34
2023-05-05T15:37:21.316Z,-143.34
2023-05-05T15:40:12.771Z,-143.34
2023-05-05T15:43:00.323Z,-143.34
2023-05-05T15:45:48.936Z,-143.34
2023-05-05T15:48:38.695Z,-143.34
2023-05-05T15:51:26.332Z,-143.34
2023-05-05T15:54:17.837Z,-143.34
2023-05-05T15:57:05.561Z,-143.34
2023-05-05T15:59:57.472Z,-143.34
2023-05-05T16:02:46.637Z,-143.34
2023-05-05T16:05:37.643Z,-143.34
2023-05-05T16:08:26.081Z,-143.34
2023-05-05T16:11:26.924Z,-143.34
2023-05-05T16:14:18.479Z,-143.34
2023-05-05T16:17:07.714Z,-143.34
2023-05-05T16:20:00.226Z,-143.34
2023-05-05T16:22:47.581Z,-143.34
2023-05-05T16:25:35.090Z,-143.34
2023-05-05T16:28:22.932Z,-143.34
2023-05-05T16:31:12.785Z,-143.34
2023-05-05T16:34:02.594Z,-143.34
2023-05-05T16:36:53.357Z,-143.34
2023-05-05T16:39:41.597Z,-143.34
2023-05-05T16:42:29.010Z,-143.34
2023-05-05T16:45:16.701Z,-143.34
2023-05-05T16:48:09.093Z,-143.34
2023-05-05T16:50:59.763Z,-143.34
2023-05-05T16:53:49.229Z,-143.34
2023-05-05T16:56:41.225Z,-143.34
2023-05-05T16:59:30.357Z,-143.34
2023-05-05T17:02:23.734Z,-143.34
2023-05-05T17:05:11.322Z,-143.34
2023-05-05T17:08:21.257Z,-143.34
2023-05-05T17:11:30.846Z,-143.34
2023-05-05T17:14:18.815Z,-143.34
2023-05-05T17:17:07.271Z,-143.34
2023-05-05T17:19:54.997Z,-143.34
2023-05-05T17:22:46.962Z,-143.34
2023-05-05T17:25:34.771Z,-143.34
2023-05-05T17:28:24.004Z,-143.34
2023-05-05T17:31:11.441Z,-143.34
2023-05-05T17:33:58.612Z,-143.34
2023-05-05T17:36:46.077Z,-143.34
2023-05-05T17:39:33.739Z,-143.34
2023-05-05T17:42:23.149Z,-143.34
2023-05-05T17:45:13.007Z,-143.34
2023-05-05T17:48:21.784Z,-143.34
2023-05-05T17:51:09.991Z,-143.34
2023-05-05T17:53:58.771Z,-143.34
2023-05-05T17:56:45.874Z,-143.34
2023-05-05T17:59:36.759Z,-143.34
2023-05-05T18:02:30.356Z,-143.34
2023-05-05T18:05:18.175Z,-143.34
2023-05-05T18:08:06.619Z,-143.34
2023-05-05T18:10:54.552Z,-143.34
2023-05-05T18:13:49.315Z,-143.34
2023-05-05T18:16:40.066Z,-143.34
2023-05-05T18:19:28.987Z,-143.34
2023-05-05T18:22:16.567Z,-143.34
2023-05-05T18:25:08.032Z,-143.34
2023-05-05T18:28:02.437Z,-143.34
2023-05-05T18:30:50.647Z,-143.34
2023-05-05T18:33:40.201Z,-143.34
2023-05-05T18:36:34.152Z,-143.34
2023-05-05T18:39:21.701Z,-143.34
2023-05-05T18:42:09.060Z,-143.34
2023-05-05T18:44:56.678Z,-143.34
2023-05-05T18:47:44.996Z,-143.34
2023-05-05T18:50:34.814Z,-143.34
2023-05-05T18:53:27.571Z,-143.34
2023-05-05T18:56:25.636Z,-143.34
2023-05-05T18:59:13.939Z,-143.34
2023-05-05T19:02:04.422Z,-143.34
2023-05-05T19:04:52.293Z,-143.34
2023-05-05T19:07:42.276Z,-143.34
2023-05-05T19:10:31.021Z,-143.34
2023-05-05T19:13:24.813Z,-143.34
2023-05-05T19:16:15.882Z,-143.34
2023-05-05T19:19:20.572Z,-143.34
2023-05-05T19:22:10.491Z,-143.34
2023-05-05T19:24:58.409Z,-143.34
2023-05-05T19:28:01.761Z,-143.34
2023-05-05T19:30:56.671Z,-143.34
2023-05-05T19:33:45.786Z,-143.34
2023-05-05T19:36:34.485Z,-143.34
2023-05-05T19:39:24.680Z,-143.34
2023-05-05T19:42:13.497Z,-143.34
2023-05-05T19:45:02.792Z,-143.34
2023-05-05T19:47:50.387Z,-143.34
2023-05-05T19:50:41.417Z,-143.34
2023-05-05T19:53:29.460Z,-143.34
2023-05-05T19:56:17.267Z,-143.34
2023-05-05T19:59:06.762Z,-143.34
2023-05-05T20:01:56.332Z,-143.34
2023-05-05T20:04:46.156Z,-143.34
2023-05-05T20:07:33.368Z,-143.34
2023-05-05T20:10:22.024Z,-143.34
2023-05-05T20:13:09.450Z,-143.34
2023-05-05T20:15:57.358Z,-143.34
2023-05-05T20:18:46.312Z,-143.34
2023-05-05T20:21:34.998Z,-143.34
2023-05-05T20:24:23.274Z,-143.34
2023-05-05T20:27:10.967Z,-143.34
2023-05-05T20:30:01.530Z,-143.34
2023-05-05T20:32:49.010Z,-143.34
2023-05-05T20:35:39.212Z,-143.34
2023-05-05T20:38:27.976Z,-143.34
2023-05-05T20:41:15.481Z,-143.34
2023-05-05T20:44:03.266Z,-143.34
2023-05-05T20:46:54.237Z,-143.34
2023-05-05T20:49:44.168Z,-143.34
2023-05-05T20:52:40.485Z,-143.34
2023-05-05T20:55:42.806Z,-143.34
2023-05-05T20:58:30.460Z,-143.34
2023-05-05T21:01:30.475Z,-143.34
2023-05-05T21:04:17.985Z,-143.34
2023-05-05T21:07:05.693Z,-143.34
2023-05-05T21:09:57.983Z,-143.34
2023-05-05T21:12:52.838Z,-143.34
2023-05-05T21:15:43.797Z,-143.34
2023-05-05T21:18:34.430Z,-143.34
2023-05-05T21:21:24.055Z,-143.34
2023-05-05T21:24:14.002Z,-143.34
2023-05-05T21:27:03.659Z,-143.34
2023-05-05T21:29:51.196Z,-143.34
2023-05-05T21:32:44.290Z,-143.34
2023-05-05T21:35:31.880Z,-143.34
2023-05-05T21:38:19.611Z,-143.34
2023-05-05T21:41:10.342Z,-143.34
2023-05-05T21:43:59.588Z,-143.34
2023-05-05T21:46:50.290Z,-143.34
2023-05-05T21:49:38.618Z,-143.34
2023-05-05T21:52:26.247Z,-143.34
2023-05-05T21:55:13.867Z,-143.34
2023-05-05T21:58:01.623Z,-143.34
2023-05-05T22:00:51.894Z,-143.34
2023-05-05T22:03:39.355Z,-143.34
2023-05-05T22:06:28.207Z,-143.34
2023-05-05T22:09:17.712Z,-143.34
2023-05-05T22:12:05.901Z,-143.34
2023-05-05T22:14:53.619Z,-143.34
2023-05-05T22:17:46.590Z,-143.34
2023-05-05T22:20:35.865Z,-143.34
2023-05-05T22:23:23.975Z,-143.34
2023-05-05T22:26:12.414Z,-143.34
2023-05-05T22:29:00.462Z,-143.34
2023-05-05T22:31:51.825Z,-143.34
2023-05-05T22:34:44.481Z,-143.34
2023-05-05T22:37:34.937Z,-143.34
2023-05-05T22:40:22.503Z,-143.34
2023-05-05T22:43:09.838Z,-143.34
2023-05-05T22:45:57.565Z,-143.34
2023-05-05T22:48:44.868Z,-143.34
2023-05-05T22:51:34.336Z,-143.34
2023-05-05T22:54:21.851Z,-143.34
2023-05-05T22:57:09.655Z,-143.34
2023-05-05T23:00:00.735Z,-143.34
2023-05-05T23:02:49.127Z,-143.34
2023-05-05T23:05:38.876Z,-143.34
2023-05-05T23:08:27.841Z,-143.34
2023-05-05T23:11:15.420Z,-143.34
2023-05-05T23:14:03.116Z,-143.34
2023-05-05T23:16:50.647Z,-143.34
2023-05-05T23:19:43.707Z,-143.34
2023-05-05T23:22:34.673Z,-143.34
2023-05-05T23:25:23.598Z,-143.34
2023-05-05T23:28:11.407Z,-143.34
2023-05-05T23:31:03.250Z,-143.34
2023-05-05T23:33:50.720Z,-143.34
2023-05-05T23:36:43.166Z,-143.34
2023-05-05T23:39:36.953Z,-143.34
2023-05-05T23:42:25.892Z,-143.34
2023-05-05T23:45:13.900Z,-143.34
2023-05-05T23:48:04.584Z,-143.34
2023-05-05T23:50:53.091Z,-143.34
2023-05-05T23:53:40.430Z,-143.34
2023-05-05T23:56:28.877Z,-143.34
2023-05-05T23:59:17.992Z,-143.34
